Time;durP1;ratioP1;P1;durP2;ratioP2;P2;SDS_P1;SDS_P2;PMS_P1;PMS_P2;Temp;Humidity;BMP_temperature;BMP_pressure;BME280_temperature;BME280_humidity;BME280_pressure;Samples;Min_cycle;Max_cycle;Signal;HPM_P1;HPM_P2
2023/09/10 00:00:35;;;;;;;1.58;1.42;;;20.80;99.90;;;;;;5119801;27;20090;-69
2023/09/10 00:03:01;;;;;;;0.88;0.85;;;20.80;99.90;;;;;;5104911;27;20587;-69
2023/09/10 00:05:26;;;;;;;2.58;2.38;;;20.80;99.90;;;;;;5124982;27;20082;-69
2023/09/10 00:07:52;;;;;;;6.35;1.85;;;20.80;99.90;;;;;;5123313;27;20035;-69
2023/09/10 00:10:18;;;;;;;0.93;0.93;;;20.70;99.90;;;;;;5120766;27;20058;-69
2023/09/10 00:12:44;;;;;;;2.58;1.50;;;20.70;99.90;;;;;;5124666;27;20180;-69
2023/09/10 00:15:10;;;;;;;8.05;1.80;;;20.80;99.90;;;;;;5125167;27;20048;-69
2023/09/10 00:17:35;;;;;;;1.23;1.02;;;20.70;99.90;;;;;;5098614;28;20035;-69
2023/09/10 00:20:01;;;;;;;2.08;1.35;;;20.70;99.90;;;;;;5123369;27;20089;-69
2023/09/10 00:22:26;;;;;;;1.50;1.20;;;20.70;99.90;;;;;;5122522;27;20050;-69
2023/09/10 00:24:52;;;;;;;1.00;0.93;;;20.70;99.90;;;;;;5105812;27;20126;-69
2023/09/10 00:27:18;;;;;;;1.30;1.20;;;20.70;99.90;;;;;;5116357;27;20039;-69
2023/09/10 00:29:43;;;;;;;1.55;1.17;;;20.70;99.90;;;;;;5127412;27;20040;-69
2023/09/10 00:32:09;;;;;;;1.80;1.48;;;20.70;99.90;;;;;;5122863;27;20418;-69
2023/09/10 00:34:34;;;;;;;4.38;2.60;;;20.60;99.90;;;;;;5122139;27;20043;-69
2023/09/10 00:37:01;;;;;;;4.95;1.55;;;20.60;99.90;;;;;;5119287;27;20096;-69
2023/09/10 00:39:26;;;;;;;1.02;0.80;;;20.60;99.90;;;;;;5106212;27;20052;-69
2023/09/10 00:41:55;;;;;;;0.85;0.75;;;20.50;99.90;;;;;;5127264;27;20043;-69
2023/09/10 00:44:23;;;;;;;0.70;0.70;;;20.50;99.90;;;;;;5104793;27;20043;-69
2023/09/10 00:46:52;;;;;;;4.53;1.65;;;20.50;99.90;;;;;;5121337;27;20046;-69
2023/09/10 00:49:19;;;;;;;0.65;0.65;;;20.50;99.90;;;;;;5121774;27;20471;-69
2023/09/10 00:51:46;;;;;;;1.63;1.30;;;20.50;99.90;;;;;;5125302;27;20150;-69
2023/09/10 00:54:14;;;;;;;1.65;1.55;;;20.50;99.90;;;;;;5120934;27;20050;-69
2023/09/10 00:56:40;;;;;;;1.55;1.35;;;20.40;99.90;;;;;;5124415;27;20046;-69
2023/09/10 00:59:08;;;;;;;2.78;1.52;;;20.40;99.90;;;;;;5124869;27;20035;-69
2023/09/10 01:01:34;;;;;;;0.40;0.40;;;20.40;99.90;;;;;;5123648;27;20078;-69
2023/09/10 01:04:00;;;;;;;4.70;2.08;;;20.30;99.90;;;;;;5097550;27;20050;-69
2023/09/10 01:06:26;;;;;;;3.10;1.90;;;20.30;99.90;;;;;;5115746;27;20047;-69
2023/09/10 01:08:52;;;;;;;4.15;2.90;;;20.30;99.90;;;;;;5125771;27;20492;-69
2023/09/10 01:11:25;;;;;;;2.13;1.27;;;20.30;99.90;;;;;;5117188;27;20044;-69
2023/09/10 01:14:17;;;;;;;;;;;20.20;99.90;;;;;;5127818;27;20134;-69
2023/09/10 01:17:02;;;;;;;2.10;1.17;;;20.20;99.90;;;;;;5088622;27;20007;-69
2023/09/10 01:19:51;;;;;;;1.45;1.35;;;20.20;99.90;;;;;;5121775;27;20048;-69
2023/09/10 01:22:53;;;;;;;5.95;1.45;;;20.10;99.90;;;;;;5120488;27;20062;-69
2023/09/10 01:25:19;;;;;;;1.13;0.85;;;20.10;99.90;;;;;;5117919;27;20125;-69
2023/09/10 01:27:46;;;;;;;1.02;0.93;;;20.10;99.90;;;;;;5120639;27;20067;-69
2023/09/10 01:30:12;;;;;;;5.28;2.42;;;20.10;99.90;;;;;;5096040;27;20051;-69
2023/09/10 01:32:47;;;;;;;2.00;1.85;;;20.10;99.90;;;;;;5125714;27;20518;-69
2023/09/10 01:35:21;;;;;;;2.47;1.70;;;20.00;99.90;;;;;;5116614;28;20047;-69
2023/09/10 01:37:59;;;;;;;2.08;1.83;;;20.00;99.90;;;;;;5121203;27;20462;-69
2023/09/10 01:40:33;;;;;;;1.33;1.20;;;20.00;99.90;;;;;;5121833;27;20054;-69
2023/09/10 01:42:59;;;;;;;1.42;0.65;;;20.00;99.90;;;;;;5120844;27;20077;-68
2023/09/10 01:45:25;;;;;;;1.45;1.35;;;19.90;99.90;;;;;;5122318;27;20047;-69
2023/09/10 01:47:51;;;;;;;1.70;1.17;;;20.00;99.90;;;;;;5124070;28;20047;-69
2023/09/10 01:50:17;;;;;;;0.93;0.90;;;20.00;99.90;;;;;;5104878;28;20539;-69
2023/09/10 01:52:42;;;;;;;0.50;0.50;;;20.00;99.90;;;;;;5112775;28;20043;-69
2023/09/10 01:55:08;;;;;;;2.55;1.52;;;19.90;99.90;;;;;;5102125;28;20039;-69
2023/09/10 01:57:34;;;;;;;4.13;1.52;;;19.90;99.90;;;;;;5121089;28;20445;-69
2023/09/10 02:00:00;;;;;;;4.07;1.75;;;19.80;99.90;;;;;;5123110;28;20032;-69
2023/09/10 02:02:25;;;;;;;0.88;0.88;;;19.80;99.90;;;;;;5120968;28;20043;-69
2023/09/10 02:04:51;;;;;;;0.88;0.88;;;19.90;99.90;;;;;;5123404;28;20040;-69
2023/09/10 02:07:17;;;;;;;1.48;1.38;;;19.90;99.90;;;;;;5125854;28;20088;-69
2023/09/10 02:09:42;;;;;;;0.90;0.90;;;19.90;99.90;;;;;;5121429;28;20043;-69
2023/09/10 02:12:08;;;;;;;3.58;0.47;;;19.90;99.90;;;;;;5101342;28;20402;-69
2023/09/10 02:14:33;;;;;;;2.20;1.42;;;19.90;99.90;;;;;;5120892;28;20115;-69
2023/09/10 02:16:59;;;;;;;1.65;1.30;;;19.80;99.90;;;;;;5121814;28;20105;-69
2023/09/10 02:19:24;;;;;;;2.15;1.92;;;19.80;99.90;;;;;;5119965;28;20043;-69
2023/09/10 02:21:52;;;;;;;0.85;0.75;;;19.80;99.90;;;;;;5120355;28;20159;-69
2023/09/10 02:24:17;;;;;;;0.57;0.57;;;19.70;99.90;;;;;;5125817;28;20047;-69
2023/09/10 02:26:43;;;;;;;1.48;1.30;;;19.80;99.90;;;;;;5123018;28;20105;-69
2023/09/10 02:29:08;;;;;;;0.80;0.80;;;19.70;99.90;;;;;;5125595;27;20042;-69
2023/09/10 02:31:34;;;;;;;0.57;0.57;;;19.80;99.90;;;;;;5119868;27;20543;-69
2023/09/10 02:34:01;;;;;;;0.70;0.70;;;19.80;99.90;;;;;;5129772;27;20047;-69
2023/09/10 02:36:27;;;;;;;0.73;0.73;;;19.80;99.90;;;;;;5124158;27;20032;-69
2023/09/10 02:38:53;;;;;;;1.30;1.00;;;19.80;99.90;;;;;;5119743;27;20437;-69
2023/09/10 02:41:19;;;;;;;4.38;1.17;;;19.70;99.90;;;;;;5125368;27;20048;-69
2023/09/10 02:43:44;;;;;;;1.88;1.25;;;19.70;99.90;;;;;;5122225;27;20043;-69
2023/09/10 02:46:10;;;;;;;0.50;0.40;;;19.80;99.90;;;;;;5131295;27;20486;-69
2023/09/10 02:48:35;;;;;;;1.50;1.40;;;19.80;99.90;;;;;;5123533;27;20039;-68
2023/09/10 02:51:01;;;;;;;1.25;0.95;;;19.80;99.90;;;;;;5135151;27;20371;-69
2023/09/10 02:53:27;;;;;;;0.88;0.80;;;19.80;99.90;;;;;;5125599;27;20049;-69
2023/09/10 02:56:02;;;;;;;1.52;1.10;;;19.80;99.90;;;;;;5123862;27;20028;-69
2023/09/10 02:58:29;;;;;;;0.60;0.60;;;19.70;99.90;;;;;;5125218;27;20470;-69
2023/09/10 03:00:54;;;;;;;0.70;0.63;;;19.80;99.90;;;;;;5124963;27;20054;-69
2023/09/10 03:03:20;;;;;;;3.20;1.95;;;19.70;99.90;;;;;;5127173;27;20047;-69
2023/09/10 03:05:46;;;;;;;3.97;1.42;;;19.70;99.90;;;;;;5124706;27;20039;-69
2023/09/10 03:08:12;;;;;;;0.60;0.60;;;19.60;99.90;;;;;;5119919;27;20043;-69
2023/09/10 03:10:38;;;;;;;0.68;0.68;;;19.60;99.90;;;;;;5125776;27;20375;-69
2023/09/10 03:13:03;;;;;;;2.05;1.23;;;19.60;99.90;;;;;;5127139;27;20066;-69
2023/09/10 03:15:29;;;;;;;1.02;1.00;;;19.60;99.90;;;;;;5124810;27;20189;-69
2023/09/10 03:17:55;;;;;;;1.08;0.88;;;19.50;99.90;;;;;;5126142;27;20038;-69
2023/09/10 03:20:21;;;;;;;4.90;1.00;;;19.50;99.90;;;;;;5126973;27;20054;-69
2023/09/10 03:22:46;;;;;;;1.70;1.60;;;19.50;99.90;;;;;;5123778;27;20050;-69
2023/09/10 03:25:12;;;;;;;1.08;0.80;;;19.50;99.90;;;;;;5125780;27;20062;-69
2023/09/10 03:27:37;;;;;;;0.90;0.90;;;19.50;99.90;;;;;;5126559;27;20050;-69
2023/09/10 03:30:06;;;;;;;2.17;1.00;;;19.50;99.90;;;;;;5124859;27;20035;-69
2023/09/10 03:32:32;;;;;;;0.52;0.52;;;19.50;99.90;;;;;;5118171;27;20051;-69
2023/09/10 03:34:57;;;;;;;1.25;1.02;;;19.50;99.90;;;;;;5126164;27;20032;-69
2023/09/10 03:37:23;;;;;;;3.28;1.17;;;19.50;99.90;;;;;;5125731;27;20500;-69
2023/09/10 03:39:48;;;;;;;0.60;0.57;;;19.40;99.90;;;;;;5130901;27;20031;-69
2023/09/10 03:42:16;;;;;;;0.52;0.52;;;19.40;99.90;;;;;;5124415;27;20054;-69
2023/09/10 03:44:42;;;;;;;1.35;1.02;;;19.40;99.90;;;;;;5123769;27;20092;-69
2023/09/10 03:47:07;;;;;;;0.85;0.85;;;19.40;99.90;;;;;;5126104;27;20035;-69
2023/09/10 03:49:33;;;;;;;1.70;1.60;;;19.40;99.90;;;;;;5115942;27;20039;-69
2023/09/10 03:51:58;;;;;;;0.55;0.55;;;19.40;99.90;;;;;;5125362;27;20043;-69
2023/09/10 03:54:24;;;;;;;0.82;0.82;;;19.30;99.90;;;;;;5121151;27;20040;-69
2023/09/10 03:56:50;;;;;;;1.45;1.20;;;19.30;99.90;;;;;;5124890;27;20047;-69
2023/09/10 03:59:15;;;;;;;0.60;0.60;;;19.30;99.90;;;;;;5126014;27;20091;-69
2023/09/10 04:01:41;;;;;;;1.13;0.88;;;19.30;99.90;;;;;;5105510;27;20081;-69
2023/09/10 04:04:07;;;;;;;1.40;1.30;;;19.30;99.90;;;;;;5122986;27;20092;-69
2023/09/10 04:06:33;;;;;;;1.00;0.65;;;19.30;99.90;;;;;;5122762;27;20048;-69
2023/09/10 04:08:59;;;;;;;1.48;1.38;;;19.30;99.90;;;;;;5125796;27;20034;-69
2023/09/10 04:11:25;;;;;;;1.80;1.08;;;19.20;99.90;;;;;;5121469;27;20066;-69
2023/09/10 04:13:50;;;;;;;0.20;0.20;;;19.20;99.90;;;;;;5132292;27;20467;-69
2023/09/10 04:16:16;;;;;;;1.98;1.25;;;19.20;99.90;;;;;;5122948;27;20039;-69
2023/09/10 04:18:41;;;;;;;2.97;1.48;;;19.30;99.90;;;;;;5117809;27;20491;-69
2023/09/10 04:21:07;;;;;;;1.50;0.43;;;19.30;99.90;;;;;;5117277;27;20043;-69
2023/09/10 04:23:33;;;;;;;0.30;0.30;;;19.20;99.90;;;;;;5121420;27;20084;-69
2023/09/10 04:25:58;;;;;;;1.42;1.30;;;19.20;99.90;;;;;;5122058;27;20173;-69
2023/09/10 04:28:24;;;;;;;1.20;1.10;;;19.20;99.90;;;;;;5125405;27;20503;-69
2023/09/10 04:30:50;;;;;;;0.55;0.55;;;19.10;99.90;;;;;;5120020;27;20130;-69
2023/09/10 04:33:18;;;;;;;2.00;1.45;;;19.10;99.90;;;;;;5127589;27;20122;-69
2023/09/10 04:35:49;;;;;;;1.02;0.80;;;19.10;99.90;;;;;;5121997;27;20039;-69
2023/09/10 04:38:14;;;;;;;2.08;1.90;;;19.10;99.90;;;;;;5123544;27;20042;-69
2023/09/10 04:40:41;;;;;;;1.58;1.48;;;19.10;99.90;;;;;;5106796;27;20039;-69
2023/09/10 04:43:07;;;;;;;4.28;1.50;;;19.10;99.90;;;;;;5123401;27;20039;-69
2023/09/10 04:45:33;;;;;;;1.27;1.17;;;19.10;99.90;;;;;;5123690;27;20497;-69
2023/09/10 04:47:58;;;;;;;1.60;0.98;;;19.10;99.90;;;;;;5124809;27;20047;-69
2023/09/10 04:50:24;;;;;;;0.40;0.40;;;19.10;99.90;;;;;;5116898;27;20039;-69
2023/09/10 04:52:51;;;;;;;4.80;1.08;;;19.00;99.90;;;;;;5122117;27;20050;-69
2023/09/10 04:55:17;;;;;;;1.40;1.30;;;19.00;99.90;;;;;;5124183;27;20043;-69
2023/09/10 04:57:43;;;;;;;0.93;0.93;;;19.00;99.90;;;;;;5120510;27;20039;-69
2023/09/10 05:00:09;;;;;;;0.32;0.32;;;19.00;99.90;;;;;;5124188;27;20400;-69
2023/09/10 05:02:34;;;;;;;1.13;1.10;;;19.00;99.90;;;;;;5103882;27;20432;-69
2023/09/10 05:05:00;;;;;;;0.57;0.57;;;19.10;99.90;;;;;;5122824;27;20047;-69
2023/09/10 05:07:26;;;;;;;0.68;0.68;;;19.10;99.90;;;;;;5124056;27;20133;-69
2023/09/10 05:09:51;;;;;;;1.75;0.98;;;19.10;99.90;;;;;;5122090;27;20119;-69
2023/09/10 05:12:17;;;;;;;0.77;0.70;;;19.00;99.90;;;;;;5125439;27;20044;-69
2023/09/10 05:14:42;;;;;;;0.60;0.60;;;19.10;99.90;;;;;;5116165;27;20054;-69
2023/09/10 05:17:08;;;;;;;1.58;1.48;;;19.00;99.90;;;;;;5119259;27;20042;-69
2023/09/10 05:19:33;;;;;;;1.02;0.95;;;19.00;99.90;;;;;;5119397;27;20047;-69
2023/09/10 05:21:59;;;;;;;2.00;0.43;;;19.00;99.90;;;;;;5122062;27;20121;-69
2023/09/10 05:24:25;;;;;;;2.10;1.65;;;19.10;99.90;;;;;;5125176;27;20043;-69
2023/09/10 05:26:51;;;;;;;1.30;1.27;;;19.00;99.90;;;;;;5103257;27;20394;-69
2023/09/10 05:29:17;;;;;;;0.30;0.30;;;19.10;99.90;;;;;;5128372;27;20046;-69
2023/09/10 05:31:42;;;;;;;0.50;0.50;;;19.10;99.90;;;;;;5124061;27;20549;-69
2023/09/10 05:34:08;;;;;;;2.97;2.03;;;19.10;99.90;;;;;;5122827;27;20047;-69
2023/09/10 05:36:34;;;;;;;0.32;0.32;;;19.10;99.90;;;;;;5118374;27;20412;-69
2023/09/10 05:39:00;;;;;;;0.50;0.50;;;19.10;99.90;;;;;;5121282;27;20043;-69
2023/09/10 05:41:26;;;;;;;0.82;0.80;;;19.10;99.90;;;;;;5123310;27;20097;-69
2023/09/10 05:43:51;;;;;;;1.60;1.50;;;19.20;99.90;;;;;;5120309;27;20043;-69
2023/09/10 05:46:17;;;;;;;1.50;0.95;;;19.20;99.90;;;;;;5124935;27;20035;-68
2023/09/10 05:48:43;;;;;;;0.65;0.65;;;19.20;99.90;;;;;;5120926;27;20032;-68
2023/09/10 05:51:09;;;;;;;1.95;1.55;;;19.20;99.90;;;;;;5102377;28;20039;-69
2023/09/10 05:53:34;;;;;;;2.22;1.35;;;19.20;99.90;;;;;;5123178;28;20084;-69
2023/09/10 05:56:03;;;;;;;1.42;1.30;;;19.20;99.90;;;;;;5123523;28;20051;-69
2023/09/10 05:58:29;;;;;;;3.92;1.50;;;19.30;99.90;;;;;;5115419;28;20040;-69
2023/09/10 06:00:54;;;;;;;2.03;1.63;;;19.30;99.90;;;;;;5115345;28;20044;-69
2023/09/10 06:03:20;;;;;;;0.47;0.47;;;19.30;99.90;;;;;;5122102;27;20039;-69
2023/09/10 06:05:46;;;;;;;1.90;1.60;;;19.30;99.90;;;;;;5127038;27;20047;-69
2023/09/10 06:08:11;;;;;;;0.82;0.82;;;19.40;99.90;;;;;;5108068;27;20036;-69
2023/09/10 06:10:37;;;;;;;1.48;1.23;;;19.40;99.90;;;;;;5126630;27;20073;-69
2023/09/10 06:13:03;;;;;;;1.50;0.93;;;19.40;99.90;;;;;;5128274;27;20043;-69
2023/09/10 06:15:28;;;;;;;0.68;0.68;;;19.50;99.90;;;;;;5106753;28;20101;-68
2023/09/10 06:17:54;;;;;;;0.40;0.40;;;19.50;99.90;;;;;;5122495;27;20127;-68
2023/09/10 06:20:20;;;;;;;0.73;0.73;;;19.50;99.90;;;;;;5124772;27;20043;-69
2023/09/10 06:22:45;;;;;;;1.60;1.30;;;19.60;99.90;;;;;;5106179;28;20047;-69
2023/09/10 06:25:11;;;;;;;3.10;0.95;;;19.70;99.90;;;;;;5108262;27;20054;-68
2023/09/10 06:27:36;;;;;;;0.10;0.10;;;19.70;99.90;;;;;;5123976;27;20036;-68
2023/09/10 06:30:02;;;;;;;1.55;1.25;;;19.70;99.90;;;;;;5125402;27;20157;-68
2023/09/10 06:32:28;;;;;;;1.05;0.32;;;19.80;99.90;;;;;;5124136;27;20396;-69
2023/09/10 06:34:54;;;;;;;1.33;1.25;;;19.80;99.90;;;;;;5126035;27;20036;-68
2023/09/10 06:37:19;;;;;;;0.75;0.52;;;19.80;99.90;;;;;;5126704;27;20042;-69
2023/09/10 06:39:45;;;;;;;0.60;0.60;;;19.90;99.90;;;;;;5108307;27;20050;-69
2023/09/10 06:42:12;;;;;;;2.75;1.00;;;19.90;99.90;;;;;;5118919;27;20035;-69
2023/09/10 06:44:38;;;;;;;0.55;0.55;;;20.00;99.90;;;;;;5109755;28;20107;-68
2023/09/10 06:47:05;;;;;;;1.88;1.73;;;19.90;99.90;;;;;;5123236;27;20181;-69
2023/09/10 06:49:31;;;;;;;0.43;0.43;;;20.00;99.90;;;;;;5126661;27;20442;-69
2023/09/10 06:51:56;;;;;;;1.70;0.75;;;20.00;99.90;;;;;;5122020;27;20043;-69
2023/09/10 06:54:23;;;;;;;0.82;0.80;;;20.10;99.90;;;;;;5124107;27;20051;-69
2023/09/10 06:56:48;;;;;;;1.55;0.88;;;20.20;99.90;;;;;;5123310;27;20096;-69
2023/09/10 06:59:14;;;;;;;1.05;0.60;;;20.10;99.90;;;;;;5127678;27;20383;-69
2023/09/10 07:01:39;;;;;;;0.55;0.55;;;20.20;99.90;;;;;;5106541;27;20054;-69
2023/09/10 07:04:22;;;;;;;0.73;0.73;;;20.30;99.90;;;;;;5123951;27;20452;-68
2023/09/10 07:06:49;;;;;;;0.45;0.45;;;20.30;99.90;;;;;;5122470;27;20482;-68
2023/09/10 07:09:21;;;;;;;1.02;0.98;;;20.40;99.90;;;;;;5126768;27;20040;-69
2023/09/10 07:11:48;;;;;;;0.60;0.60;;;20.40;99.90;;;;;;5131301;27;20487;-69
2023/09/10 07:14:13;;;;;;;0.47;0.47;;;20.50;99.90;;;;;;5121811;27;20387;-68
2023/09/10 07:16:39;;;;;;;0.43;0.43;;;20.50;99.90;;;;;;5124878;27;20043;-69
2023/09/10 07:19:05;;;;;;;0.10;0.10;;;20.50;99.90;;;;;;5133015;27;20066;-69
2023/09/10 07:21:30;;;;;;;0.08;0.08;;;20.60;99.90;;;;;;5126159;27;20392;-69
2023/09/10 07:23:56;;;;;;;0.57;0.40;;;20.60;99.90;;;;;;5121123;27;20537;-69
2023/09/10 07:26:22;;;;;;;1.35;1.02;;;20.60;99.90;;;;;;5122751;27;20092;-69
2023/09/10 07:28:47;;;;;;;1.55;0.95;;;20.70;99.90;;;;;;5126707;27;20075;-69
2023/09/10 07:31:13;;;;;;;0.10;0.10;;;20.70;99.90;;;;;;5125808;27;20043;-69
2023/09/10 07:33:38;;;;;;;0.35;0.35;;;20.80;99.90;;;;;;5124328;27;20055;-69
2023/09/10 07:36:04;;;;;;;1.63;0.80;;;20.80;99.90;;;;;;5117456;27;20050;-69
2023/09/10 07:38:31;;;;;;;0.10;0.10;;;20.80;99.90;;;;;;5126673;27;20035;-69
2023/09/10 07:40:56;;;;;;;1.02;0.55;;;20.90;99.90;;;;;;5126614;27;20091;-69
2023/09/10 07:43:23;;;;;;;2.00;0.70;;;20.90;99.90;;;;;;5118482;27;20122;-69
2023/09/10 07:45:49;;;;;;;0.85;0.85;;;21.00;99.90;;;;;;5122771;27;20047;-69
2023/09/10 07:48:15;;;;;;;0.10;0.10;;;21.00;99.90;;;;;;5117210;27;20436;-69
2023/09/10 07:50:41;;;;;;;0.70;0.70;;;21.10;99.90;;;;;;5124366;27;20047;-69
2023/09/10 07:53:07;;;;;;;0.35;0.35;;;21.20;99.90;;;;;;5123443;27;20447;-69
2023/09/10 07:55:35;;;;;;;0.57;0.57;;;21.20;99.90;;;;;;5122807;27;20428;-69
2023/09/10 07:58:02;;;;;;;2.50;1.17;;;21.30;99.90;;;;;;5126064;27;20039;-69
2023/09/10 08:00:29;;;;;;;0.20;0.10;;;21.30;99.90;;;;;;5117892;27;20050;-69
2023/09/10 08:02:55;;;;;;;0.65;0.30;;;21.40;99.90;;;;;;5123920;27;20069;-69
2023/09/10 08:05:20;;;;;;;3.67;1.75;;;21.50;99.90;;;;;;5121539;27;20410;-69
2023/09/10 08:07:46;;;;;;;2.03;0.60;;;21.50;99.90;;;;;;5124771;27;20079;-69
2023/09/10 08:10:11;;;;;;;2.80;1.10;;;21.50;99.90;;;;;;5123569;27;20039;-69
2023/09/10 08:12:37;;;;;;;1.27;0.38;;;21.60;99.90;;;;;;5130423;27;20040;-69
2023/09/10 08:15:04;;;;;;;0.47;0.30;;;21.70;99.90;;;;;;5128331;27;20035;-69
2023/09/10 08:17:30;;;;;;;0.47;0.43;;;21.80;99.90;;;;;;5120055;27;20043;-69
2023/09/10 08:19:55;;;;;;;0.20;0.20;;;21.80;99.90;;;;;;5124244;27;20513;-69
2023/09/10 08:22:21;;;;;;;0.13;0.13;;;21.90;99.90;;;;;;5122309;27;20380;-69
2023/09/10 08:24:48;;;;;;;0.43;0.43;;;21.90;99.90;;;;;;5120672;27;20039;-69
2023/09/10 08:27:13;;;;;;;0.00;0.00;;;22.00;99.90;;;;;;5106468;27;20054;-69
2023/09/10 08:29:39;;;;;;;0.08;0.08;;;22.10;99.90;;;;;;5105355;27;20494;-69
2023/09/10 08:32:05;;;;;;;0.60;0.50;;;22.10;99.90;;;;;;5122451;27;20035;-69
2023/09/10 08:34:30;;;;;;;0.52;0.52;;;22.20;99.90;;;;;;5122468;27;20551;-69
2023/09/10 08:36:56;;;;;;;0.13;0.13;;;22.30;99.90;;;;;;5121671;27;20580;-68
2023/09/10 08:39:22;;;;;;;3.25;0.90;;;22.30;99.90;;;;;;5123690;27;20043;-69
2023/09/10 08:42:04;;;;;;;0.15;0.15;;;22.40;99.90;;;;;;5123454;27;20054;-69
2023/09/10 08:44:30;;;;;;;0.45;0.43;;;22.50;99.90;;;;;;5124191;27;20486;-69
2023/09/10 08:47:00;;;;;;;0.00;0.00;;;22.60;99.90;;;;;;5125483;27;20043;-69
2023/09/10 08:49:28;;;;;;;1.15;1.02;;;22.70;99.90;;;;;;5114515;27;20050;-69
2023/09/10 08:51:55;;;;;;;1.45;1.35;;;22.90;99.90;;;;;;5100890;27;20476;-69
2023/09/10 08:54:22;;;;;;;5.15;0.32;;;23.20;99.90;;;;;;5124785;27;20049;-69
2023/09/10 08:56:49;;;;;;;0.32;0.32;;;23.40;99.90;;;;;;5116777;27;20129;-69
2023/09/10 08:59:16;;;;;;;1.13;1.00;;;23.60;99.90;;;;;;5104104;28;20051;-69
2023/09/10 09:01:44;;;;;;;0.30;0.30;;;23.90;99.90;;;;;;5120997;27;20054;-69
2023/09/10 09:04:12;;;;;;;1.55;1.15;;;24.50;99.90;;;;;;5124957;27;20035;-69
2023/09/10 09:06:40;;;;;;;0.22;0.22;;;25.10;99.90;;;;;;5123470;27;20112;-69
2023/09/10 09:09:07;;;;;;;0.20;0.13;;;25.60;99.90;;;;;;5123529;27;20046;-70
2023/09/10 09:11:37;;;;;;;0.45;0.38;;;26.40;99.90;;;;;;5113414;27;20043;-70
2023/09/10 09:14:07;;;;;;;0.65;0.65;;;26.70;99.90;;;;;;5121048;27;20090;-70
2023/09/10 09:16:34;;;;;;;0.93;0.93;;;27.00;99.90;;;;;;5116740;27;20130;-70
2023/09/10 09:19:07;;;;;;;1.23;1.13;;;27.30;99.90;;;;;;5127495;27;20047;-70
2023/09/10 09:21:33;;;;;;;;;;;27.50;99.90;;;;;;5120853;27;20475;-70
2023/09/10 09:24:00;;;;;;;0.20;0.20;;;27.80;99.90;;;;;;5121402;27;20010;-70
2023/09/10 09:26:27;;;;;;;0.10;0.10;;;27.90;99.90;;;;;;5125386;27;20050;-70
2023/09/10 09:28:57;;;;;;;2.90;0.68;;;28.10;99.90;;;;;;5118036;27;20042;-70
2023/09/10 09:31:23;;;;;;;0.10;0.10;;;28.30;99.90;;;;;;5118235;27;20406;-70
2023/09/10 09:33:49;;;;;;;0.55;0.28;;;28.40;99.90;;;;;;5124804;27;20482;-71
2023/09/10 09:36:15;;;;;;;0.10;0.10;;;28.20;99.90;;;;;;5122755;27;20457;-70
2023/09/10 09:38:46;;;;;;;1.08;0.40;;;28.50;99.90;;;;;;5117268;27;20039;-70
2023/09/10 09:41:16;;;;;;;0.55;0.55;;;28.60;99.90;;;;;;5123587;27;20123;-70
2023/09/10 09:43:42;;;;;;;0.00;0.00;;;28.70;99.90;;;;;;5125029;27;20415;-70
2023/09/10 09:46:08;;;;;;;1.23;0.55;;;28.80;99.90;;;;;;5124249;27;20084;-70
2023/09/10 09:48:34;;;;;;;0.00;0.00;;;29.00;99.90;;;;;;5121042;27;20039;-69
2023/09/10 09:51:02;;;;;;;0.00;0.00;;;29.10;99.90;;;;;;5113707;27;20112;-70
2023/09/10 09:53:30;;;;;;;0.38;0.38;;;29.40;99.90;;;;;;5126103;27;20038;-70
2023/09/10 09:55:59;;;;;;;0.00;0.00;;;29.40;99.90;;;;;;5120449;28;20040;-70
2023/09/10 09:58:24;;;;;;;0.47;0.40;;;29.50;99.90;;;;;;5121168;28;20111;-70
2023/09/10 10:00:50;;;;;;;0.45;0.32;;;29.40;99.90;;;;;;5122412;28;20046;-70
2023/09/10 10:03:20;;;;;;;0.30;0.30;;;29.60;99.90;;;;;;5103934;28;20036;-70
2023/09/10 10:05:50;;;;;;;0.43;0.28;;;29.50;99.90;;;;;;5122830;28;20051;-70
2023/09/10 10:08:17;;;;;;;0.13;0.13;;;29.70;99.90;;;;;;5122581;28;20039;-70
2023/09/10 10:10:49;;;;;;;0.60;0.60;;;29.70;99.90;;;;;;5122258;28;20039;-70
2023/09/10 10:13:19;;;;;;;0.08;0.08;;;29.50;99.90;;;;;;5126164;28;20513;-70
2023/09/10 10:15:50;;;;;;;0.30;0.30;;;29.20;99.90;;;;;;5125084;28;20055;-70
2023/09/10 10:18:17;;;;;;;0.20;0.20;;;29.10;99.90;;;;;;5119142;28;20111;-70
2023/09/10 10:20:47;;;;;;;0.40;0.35;;;29.10;99.90;;;;;;5123040;28;20094;-70
2023/09/10 10:23:22;;;;;;;0.00;0.00;;;28.90;99.90;;;;;;5120466;28;20050;-70
2023/09/10 10:25:48;;;;;;;0.25;0.25;;;28.90;99.90;;;;;;5119245;28;20134;-70
2023/09/10 10:28:14;;;;;;;0.43;0.35;;;28.90;99.90;;;;;;5122052;28;20043;-70
2023/09/10 10:30:53;;;;;;;0.70;0.55;;;28.80;99.90;;;;;;5123997;28;20051;-70
2023/09/10 10:33:23;;;;;;;0.00;0.00;;;28.80;99.90;;;;;;5121082;28;20053;-70
2023/09/10 10:36:00;;;;;;;0.00;0.00;;;28.80;99.90;;;;;;5120578;28;20040;-70
2023/09/10 10:38:32;;;;;;;0.47;0.43;;;28.60;99.90;;;;;;5119638;28;20039;-70
2023/09/10 10:41:04;;;;;;;4.88;0.25;;;28.60;99.90;;;;;;5094367;28;20055;-70
2023/09/10 10:43:33;;;;;;;0.10;0.10;;;28.70;99.90;;;;;;5122244;28;20036;-70
2023/09/10 10:46:02;;;;;;;0.63;0.60;;;28.70;99.90;;;;;;5119388;28;20051;-70
2023/09/10 10:48:32;;;;;;;0.30;0.30;;;28.60;99.90;;;;;;5103471;27;20386;-69
2023/09/10 10:51:01;;;;;;;1.13;0.75;;;28.70;99.90;;;;;;5107010;27;20543;-69
2023/09/10 10:53:26;;;;;;;0.17;0.17;;;28.80;99.90;;;;;;5121763;27;20105;-69
2023/09/10 10:56:03;;;;;;;0.30;0.30;;;28.90;99.90;;;;;;5125798;27;20474;-68
2023/09/10 10:58:29;;;;;;;0.65;0.50;;;29.10;99.90;;;;;;5124000;27;20054;-70
2023/09/10 11:00:58;;;;;;;0.52;0.52;;;29.10;99.90;;;;;;5121852;27;20043;-69
2023/09/10 11:03:24;;;;;;;0.88;0.70;;;29.20;99.90;;;;;;5120347;27;20046;-69
2023/09/10 11:05:53;;;;;;;0.20;0.20;;;29.20;99.90;;;;;;5125724;27;20405;-68
2023/09/10 11:08:28;;;;;;;0.52;0.52;;;29.20;99.90;;;;;;5122804;27;20119;-69
2023/09/10 11:10:55;;;;;;;0.65;0.65;;;29.40;99.90;;;;;;5126304;27;20466;-69
2023/09/10 11:13:22;;;;;;;0.25;0.25;;;29.40;99.90;;;;;;5119231;27;20132;-69
2023/09/10 11:16:06;;;;;;;0.20;0.20;;;29.50;99.90;;;;;;5121019;27;20138;-69
2023/09/10 11:18:34;;;;;;;0.15;0.15;;;29.60;99.90;;;;;;5121875;27;20051;-68
2023/09/10 11:21:21;;;;;;;0.52;0.52;;;29.60;99.90;;;;;;5107504;27;20063;-69
2023/09/10 11:23:46;;;;;;;0.20;0.17;;;29.60;99.90;;;;;;5128318;27;20453;-69
2023/09/10 11:26:14;;;;;;;0.52;0.47;;;29.70;99.90;;;;;;5123470;27;20041;-69
2023/09/10 11:28:54;;;;;;;1.75;1.10;;;29.60;99.90;;;;;;5124458;27;20097;-69
2023/09/10 11:31:37;;;;;;;0.10;0.10;;;29.70;99.90;;;;;;5119076;27;20154;-69
2023/09/10 11:34:15;;;;;;;0.52;0.52;;;29.70;99.90;;;;;;5127709;27;20483;-69
2023/09/10 11:36:42;;;;;;;0.25;0.25;;;29.90;99.90;;;;;;5104364;28;20052;-69
2023/09/10 11:39:08;;;;;;;0.20;0.20;;;30.00;99.90;;;;;;5124123;27;20456;-69
2023/09/10 11:41:34;;;;;;;0.30;0.30;;;30.10;99.90;;;;;;5131292;27;20050;-68
2023/09/10 11:44:03;;;;;;;0.20;0.20;;;30.30;99.90;;;;;;5123919;27;20060;-69
2023/09/10 11:46:28;;;;;;;0.90;0.75;;;30.30;99.90;;;;;;5125553;27;20138;-69
2023/09/10 11:48:54;;;;;;;0.38;0.38;;;30.30;99.90;;;;;;5120729;27;20119;-69
2023/09/10 11:51:19;;;;;;;0.20;0.20;;;30.30;99.90;;;;;;5120806;27;20062;-69
2023/09/10 11:53:45;;;;;;;1.85;0.30;;;30.30;99.90;;;;;;5123908;27;20494;-68
2023/09/10 11:56:11;;;;;;;0.70;0.30;;;30.60;99.90;;;;;;5119535;27;20082;-69
2023/09/10 11:58:37;;;;;;;0.43;0.43;;;30.70;99.90;;;;;;5124954;27;20040;-69
2023/09/10 12:01:04;;;;;;;0.25;0.20;;;30.60;99.90;;;;;;5122925;27;20043;-69
2023/09/10 12:03:33;;;;;;;2.30;1.13;;;30.70;99.90;;;;;;5118255;27;20071;-69
2023/09/10 12:05:58;;;;;;;0.20;0.20;;;30.70;99.90;;;;;;5125949;27;20482;-69
2023/09/10 12:08:24;;;;;;;0.13;0.13;;;30.80;99.90;;;;;;5124636;27;20039;-69
2023/09/10 12:10:52;;;;;;;0.55;0.55;;;30.90;99.90;;;;;;5125181;27;20091;-69
2023/09/10 12:13:19;;;;;;;0.25;0.25;;;30.90;99.90;;;;;;5126394;27;20043;-69
2023/09/10 12:15:45;;;;;;;0.57;0.52;;;31.00;99.90;;;;;;5117809;27;20494;-69
2023/09/10 12:18:10;;;;;;;0.10;0.10;;;31.20;99.90;;;;;;5128490;27;20067;-69
2023/09/10 12:20:36;;;;;;;3.75;0.65;;;31.20;99.90;;;;;;5122794;27;20479;-69
2023/09/10 12:23:04;;;;;;;0.88;0.88;;;31.60;99.90;;;;;;5123603;27;20122;-69
2023/09/10 12:25:30;;;;;;;0.68;0.63;;;31.50;99.90;;;;;;5120197;27;20047;-69
2023/09/10 12:27:56;;;;;;;0.75;0.73;;;31.60;99.90;;;;;;5124801;27;20052;-69
2023/09/10 12:30:23;;;;;;;0.55;0.43;;;31.40;99.90;;;;;;5116552;27;20058;-69
2023/09/10 12:32:50;;;;;;;0.15;0.15;;;31.50;99.90;;;;;;5125953;27;20126;-69
2023/09/10 12:35:15;;;;;;;0.30;0.30;;;31.40;99.90;;;;;;5118878;27;20153;-69
2023/09/10 12:37:52;;;;;;;11.15;0.45;;;31.50;99.90;;;;;;5124204;27;20539;-69
2023/09/10 12:40:19;;;;;;;1.27;1.17;;;31.60;99.90;;;;;;5123575;27;20067;-69
2023/09/10 12:42:46;;;;;;;2.13;0.57;;;31.70;99.90;;;;;;5122200;27;20043;-69
2023/09/10 12:45:12;;;;;;;0.80;0.80;;;31.50;99.90;;;;;;5120502;27;20078;-69
2023/09/10 12:47:38;;;;;;;0.32;0.32;;;31.60;99.90;;;;;;5123668;27;20046;-69